sensor_id;sensor_type;location;lat;lon;timestamp;pressure;altitude;pressure_sealevel;temperature;humidity
61014;BME280;46899;47.542;19.082;2022-10-13T00:01:17;101312.09;;;9.61;100.00
61014;BME280;46899;47.542;19.082;2022-10-13T00:04:20;101311.37;;;9.53;100.00
61014;BME280;46899;47.542;19.082;2022-10-13T00:07:23;101313.09;;;9.53;100.00
61014;BME280;46899;47.542;19.082;2022-10-13T00:10:26;101307.97;;;9.48;100.00
61014;BME280;46899;47.542;19.082;2022-10-13T00:13:28;101313.25;;;9.44;100.00
61014;BME280;46899;47.542;19.082;2022-10-13T00:16:31;101304.66;;;9.37;100.00
61014;BME280;46899;47.542;19.082;2022-10-13T00:19:33;101306.44;;;9.35;100.00
61014;BME280;46899;47.542;19.082;2022-10-13T00:22:36;101316.81;;;9.35;100.00
61014;BME280;46899;47.542;19.082;2022-10-13T00:25:42;101312.53;;;9.34;100.00
61014;BME280;46899;47.542;19.082;2022-10-13T00:28:45;101312.53;;;9.33;100.00
61014;BME280;46899;47.542;19.082;2022-10-13T00:31:53;101307.41;;;9.30;100.00
61014;BME280;46899;47.542;19.082;2022-10-13T00:34:56;101310.84;;;9.30;100.00
61014;BME280;46899;47.542;19.082;2022-10-13T00:37:58;101303.94;;;9.29;100.00
61014;BME280;46899;47.542;19.082;2022-10-13T00:41:04;101316.03;;;9.30;100.00
61014;BME280;46899;47.542;19.082;2022-10-13T00:44:55;101310.88;;;9.29;100.00
61014;BME280;46899;47.542;19.082;2022-10-13T00:47:36;101307.41;;;9.28;100.00
61014;BME280;46899;47.542;19.082;2022-10-13T00:50:39;101313.50;;;9.26;100.00
61014;BME280;46899;47.542;19.082;2022-10-13T00:53:43;101308.37;;;9.23;100.00
61014;BME280;46899;47.542;19.082;2022-10-13T00:56:48;101300.56;;;9.21;100.00
61014;BME280;46899;47.542;19.082;2022-10-13T00:59:52;101305.84;;;9.18;100.00
61014;BME280;46899;47.542;19.082;2022-10-13T01:02:55;101304.16;;;9.14;100.00
61014;BME280;46899;47.542;19.082;2022-10-13T01:05:59;101301.66;;;9.08;100.00
61014;BME280;46899;47.542;19.082;2022-10-13T01:09:02;101297.25;;;9.13;100.00
61014;BME280;46899;47.542;19.082;2022-10-13T01:21:26;101293.00;;;9.08;100.00
61014;BME280;46899;47.542;19.082;2022-10-13T01:24:55;101292.19;;;9.03;100.00
61014;BME280;46899;47.542;19.082;2022-10-13T01:31:27;101300.06;;;8.97;100.00
61014;BME280;46899;47.542;19.082;2022-10-13T01:34:35;101293.97;;;8.98;100.00
61014;BME280;46899;47.542;19.082;2022-10-13T01:41:09;101294.91;;;8.93;100.00
61014;BME280;46899;47.542;19.082;2022-10-13T01:47:23;101300.94;;;8.97;100.00
61014;BME280;46899;47.542;19.082;2022-10-13T01:50:26;101289.69;;;8.95;100.00
61014;BME280;46899;47.542;19.082;2022-10-13T01:53:29;101294.91;;;8.93;100.00
61014;BME280;46899;47.542;19.082;2022-10-13T01:56:32;101289.75;;;8.92;100.00
61014;BME280;46899;47.542;19.082;2022-10-13T01:59:34;101287.09;;;8.95;100.00
61014;BME280;46899;47.542;19.082;2022-10-13T02:02:46;101283.66;;;8.93;100.00
61014;BME280;46899;47.542;19.082;2022-10-13T02:08:56;101280.28;;;8.89;100.00
61014;BME280;46899;47.542;19.082;2022-10-13T02:12:04;101279.31;;;8.95;100.00
61014;BME280;46899;47.542;19.082;2022-10-13T02:15:09;101275.94;;;8.90;100.00
61014;BME280;46899;47.542;19.082;2022-10-13T02:18:14;101282.00;;;8.89;100.00
61014;BME280;46899;47.542;19.082;2022-10-13T02:21:19;101281.94;;;8.93;100.00
61014;BME280;46899;47.542;19.082;2022-10-13T02:24:23;101285.41;;;8.94;100.00
61014;BME280;46899;47.542;19.082;2022-10-13T02:27:25;101287.22;;;8.86;100.00
61014;BME280;46899;47.542;19.082;2022-10-13T02:30:29;101283.06;;;8.74;100.00
61014;BME280;46899;47.542;19.082;2022-10-13T02:33:32;101285.69;;;8.73;100.00
61014;BME280;46899;47.542;19.082;2022-10-13T02:36:35;101287.34;;;8.77;100.00
61014;BME280;46899;47.542;19.082;2022-10-13T02:39:39;101289.94;;;8.77;100.00
61014;BME280;46899;47.542;19.082;2022-10-13T02:42:45;101287.41;;;8.72;100.00
61014;BME280;46899;47.542;19.082;2022-10-13T02:45:47;101278.81;;;8.69;100.00
61014;BME280;46899;47.542;19.082;2022-10-13T02:48:50;101290.09;;;8.65;100.00
61014;BME280;46899;47.542;19.082;2022-10-13T02:51:52;101290.78;;;8.79;100.00
61014;BME280;46899;47.542;19.082;2022-10-13T02:54:55;101287.34;;;8.77;100.00
61014;BME280;46899;47.542;19.082;2022-10-13T02:57:57;101291.69;;;8.75;100.00
61014;BME280;46899;47.542;19.082;2022-10-13T03:01:07;101290.84;;;8.76;100.00
61014;BME280;46899;47.542;19.082;2022-10-13T03:04:10;101293.50;;;8.71;100.00
61014;BME280;46899;47.542;19.082;2022-10-13T03:07:12;101292.69;;;8.66;100.00
61014;BME280;46899;47.542;19.082;2022-10-13T03:10:15;101297.03;;;8.64;100.00
61014;BME280;46899;47.542;19.082;2022-10-13T03:13:17;101290.13;;;8.60;100.00
61014;BME280;46899;47.542;19.082;2022-10-13T03:16:20;101291.09;;;8.55;100.00
61014;BME280;46899;47.542;19.082;2022-10-13T03:19:23;101284.19;;;8.54;100.00
61014;BME280;46899;47.542;19.082;2022-10-13T03:22:25;101280.81;;;8.47;100.00
61014;BME280;46899;47.542;19.082;2022-10-13T03:25:28;101289.47;;;8.43;100.00
61014;BME280;46899;47.542;19.082;2022-10-13T03:28:30;101288.66;;;8.40;100.00
61014;BME280;46899;47.542;19.082;2022-10-13T03:31:33;101290.47;;;8.33;100.00
61014;BME280;46899;47.542;19.082;2022-10-13T03:34:36;101285.28;;;8.32;100.00
61014;BME280;46899;47.542;19.082;2022-10-13T03:37:39;101282.75;;;8.29;100.00
61014;BME280;46899;47.542;19.082;2022-10-13T03:40:41;101288.75;;;8.31;100.00
61014;BME280;46899;47.542;19.082;2022-10-13T03:43:44;101283.63;;;8.26;100.00
61014;BME280;46899;47.542;19.082;2022-10-13T03:46:46;101279.31;;;8.23;100.00
61014;BME280;46899;47.542;19.082;2022-10-13T03:49:48;101284.50;;;8.20;100.00
61014;BME280;46899;47.542;19.082;2022-10-13T03:52:51;101276.78;;;8.16;100.00
61014;BME280;46899;47.542;19.082;2022-10-13T03:55:54;101274.22;;;8.14;100.00
61014;BME280;46899;47.542;19.082;2022-10-13T03:58:58;101280.25;;;8.13;100.00
61014;BME280;46899;47.542;19.082;2022-10-13T04:02:03;101281.16;;;8.12;100.00
61014;BME280;46899;47.542;19.082;2022-10-13T04:05:06;101280.34;;;8.04;100.00
61014;BME280;46899;47.542;19.082;2022-10-13T04:08:08;101280.38;;;8.01;100.00
61014;BME280;46899;47.542;19.082;2022-10-13T04:11:12;101274.37;;;7.98;100.00
61014;BME280;46899;47.542;19.082;2022-10-13T04:14:16;101276.09;;;7.97;100.00
61014;BME280;46899;47.542;19.082;2022-10-13T04:17:18;101277.00;;;7.95;100.00
61014;BME280;46899;47.542;19.082;2022-10-13T04:20:21;101272.69;;;7.92;100.00
61014;BME280;46899;47.542;19.082;2022-10-13T04:23:24;101273.56;;;7.93;100.00
61014;BME280;46899;47.542;19.082;2022-10-13T04:26:26;101277.91;;;7.89;100.00
61014;BME280;46899;47.542;19.082;2022-10-13T04:29:30;101272.72;;;7.89;100.00
61014;BME280;46899;47.542;19.082;2022-10-13T04:32:32;101268.44;;;7.88;100.00
61014;BME280;46899;47.542;19.082;2022-10-13T04:35:40;101271.03;;;7.85;100.00
61014;BME280;46899;47.542;19.082;2022-10-13T04:38:42;101268.47;;;7.82;100.00
61014;BME280;46899;47.542;19.082;2022-10-13T04:41:45;101266.75;;;7.81;100.00
61014;BME280;46899;47.542;19.082;2022-10-13T04:44:47;101269.38;;;7.78;100.00
61014;BME280;46899;47.542;19.082;2022-10-13T04:47:51;101272.84;;;7.77;100.00
61014;BME280;46899;47.542;19.082;2022-10-13T04:51:03;101276.31;;;7.76;100.00
61014;BME280;46899;47.542;19.082;2022-10-13T04:54:06;101265.09;;;7.74;100.00
61014;BME280;46899;47.542;19.082;2022-10-13T04:57:08;101266.81;;;7.74;100.00
61014;BME280;46899;47.542;19.082;2022-10-13T05:00:10;101274.59;;;7.74;100.00
61014;BME280;46899;47.542;19.082;2022-10-13T05:03:13;101273.75;;;7.70;100.00
61014;BME280;46899;47.542;19.082;2022-10-13T05:06:16;101278.94;;;7.70;100.00
61014;BME280;46899;47.542;19.082;2022-10-13T05:09:21;101274.59;;;7.74;100.00
61014;BME280;46899;47.542;19.082;2022-10-13T05:12:24;101280.63;;;7.77;100.00
61014;BME280;46899;47.542;19.082;2022-10-13T05:15:26;101274.53;;;7.81;100.00
61014;BME280;46899;47.542;19.082;2022-10-13T05:18:28;101277.06;;;7.89;100.00
61014;BME280;46899;47.542;19.082;2022-10-13T05:21:31;101273.50;;;8.00;100.00
61014;BME280;46899;47.542;19.082;2022-10-13T05:24:34;101272.59;;;8.01;100.00
61014;BME280;46899;47.542;19.082;2022-10-13T05:27:39;101277.84;;;7.94;100.00
61014;BME280;46899;47.542;19.082;2022-10-13T05:30:43;101284.78;;;7.95;100.00
61014;BME280;46899;47.542;19.082;2022-10-13T05:33:46;101281.28;;;8.00;100.00
61014;BME280;46899;47.542;19.082;2022-10-13T05:36:51;101282.06;;;8.07;100.00
61014;BME280;46899;47.542;19.082;2022-10-13T05:39:53;101286.34;;;8.11;100.00
61014;BME280;46899;47.542;19.082;2022-10-13T05:42:56;101281.16;;;8.12;100.00
61014;BME280;46899;47.542;19.082;2022-10-13T05:45:58;101286.25;;;8.18;100.00
61014;BME280;46899;47.542;19.082;2022-10-13T05:49:02;101283.59;;;8.27;100.00
61014;BME280;46899;47.542;19.082;2022-10-13T05:52:06;101292.13;;;8.39;100.00
61014;BME280;46899;47.542;19.082;2022-10-13T05:55:10;101292.03;;;8.46;100.00
61014;BME280;46899;47.542;19.082;2022-10-13T05:58:13;101298.81;;;8.59;100.00
61014;BME280;46899;47.542;19.082;2022-10-13T06:01:17;101295.13;;;8.77;100.00
61014;BME280;46899;47.542;19.082;2022-10-13T06:04:25;101296.75;;;8.84;100.00
61014;BME280;46899;47.542;19.082;2022-10-13T06:07:27;101303.47;;;9.00;100.00
61014;BME280;46899;47.542;19.082;2022-10-13T06:10:30;101306.00;;;9.06;100.00
61014;BME280;46899;47.542;19.082;2022-10-13T06:13:33;101307.59;;;9.15;100.00
61014;BME280;46899;47.542;19.082;2022-10-13T06:16:35;101304.94;;;9.21;100.00
61014;BME280;46899;47.542;19.082;2022-10-13T06:19:38;101301.19;;;9.38;100.00
61014;BME280;46899;47.542;19.082;2022-10-13T06:22:41;101309.72;;;9.48;100.00
61014;BME280;46899;47.542;19.082;2022-10-13T06:25:49;101312.94;;;9.63;100.00
61014;BME280;46899;47.542;19.082;2022-10-13T06:28:52;101308.28;;;9.84;100.00
61014;BME280;46899;47.542;19.082;2022-10-13T06:32:01;101306.28;;;9.99;100.00
61014;BME280;46899;47.542;19.082;2022-10-13T06:35:03;101311.91;;;10.25;100.00
61014;BME280;46899;47.542;19.082;2022-10-13T06:38:06;101315.25;;;10.32;100.00
61014;BME280;46899;47.542;19.082;2022-10-13T06:41:09;101314.31;;;10.36;100.00
61014;BME280;46899;47.542;19.082;2022-10-13T06:44:12;101320.91;;;10.54;100.00
61014;BME280;46899;47.542;19.082;2022-10-13T06:47:15;101320.50;;;10.75;100.00
61014;BME280;46899;47.542;19.082;2022-10-13T06:50:17;101317.47;;;10.94;100.00
61014;BME280;46899;47.542;19.082;2022-10-13T06:53:20;101316.31;;;11.08;100.00
61014;BME280;46899;47.542;19.082;2022-10-13T06:56:22;101319.72;;;11.11;100.00
61014;BME280;46899;47.542;19.082;2022-10-13T06:59:25;101312.38;;;11.30;100.00
61014;BME280;46899;47.542;19.082;2022-10-13T07:02:28;101316.41;;;11.43;100.00
61014;BME280;46899;47.542;19.082;2022-10-13T07:05:31;101307.81;;;11.39;100.00
61014;BME280;46899;47.542;19.082;2022-10-13T07:08:34;101310.91;;;11.55;100.00
61014;BME280;46899;47.542;19.082;2022-10-13T07:11:36;101312.97;;;11.78;100.00
61014;BME280;46899;47.542;19.082;2022-10-13T07:14:39;101312.56;;;11.94;100.00
61014;BME280;46899;47.542;19.082;2022-10-13T07:17:45;101308.75;;;12.07;100.00
61014;BME280;46899;47.542;19.082;2022-10-13T07:20:47;101312.63;;;12.26;100.00
61014;BME280;46899;47.542;19.082;2022-10-13T07:23:50;101308.94;;;12.33;100.00
61014;BME280;46899;47.542;19.082;2022-10-13T07:26:52;101318.19;;;12.45;100.00
61014;BME280;46899;47.542;19.082;2022-10-13T07:29:55;101318.66;;;12.59;100.00
61014;BME280;46899;47.542;19.082;2022-10-13T07:32:57;101311.44;;;12.98;100.00
61014;BME280;46899;47.542;19.082;2022-10-13T07:36:01;101309.31;;;13.12;100.00
61014;BME280;46899;47.542;19.082;2022-10-13T07:39:03;101306.44;;;13.21;100.00
61014;BME280;46899;47.542;19.082;2022-10-13T07:42:06;101314.22;;;13.23;100.00
61014;BME280;46899;47.542;19.082;2022-10-13T07:45:08;101313.78;;;13.36;100.00
61014;BME280;46899;47.542;19.082;2022-10-13T07:48:11;101313.31;;;13.51;100.00
61014;BME280;46899;47.542;19.082;2022-10-13T07:51:13;101308.81;;;13.56;100.00
61014;BME280;46899;47.542;19.082;2022-10-13T07:54:16;101310.53;;;13.84;98.63
61014;BME280;46899;47.542;19.082;2022-10-13T07:57:25;101312.44;;;13.79;100.00
61014;BME280;46899;47.542;19.082;2022-10-13T08:00:28;101312.72;;;14.22;97.72
61014;BME280;46899;47.542;19.082;2022-10-13T08:03:30;101312.72;;;14.47;95.40
61014;BME280;46899;47.542;19.082;2022-10-13T08:06:34;101302.06;;;14.76;93.01
61014;BME280;46899;47.542;19.082;2022-10-13T08:09:37;101305.47;;;15.01;92.22
61014;BME280;46899;47.542;19.082;2022-10-13T08:12:39;101299.38;;;15.00;90.20
61014;BME280;46899;47.542;19.082;2022-10-13T08:15:43;101301.78;;;14.83;90.25
61014;BME280;46899;47.542;19.082;2022-10-13T08:18:47;101302.56;;;14.85;88.90
61014;BME280;46899;47.542;19.082;2022-10-13T08:21:50;101303.25;;;14.90;80.92
61014;BME280;46899;47.542;19.082;2022-10-13T08:24:59;101303.16;;;15.15;79.94
61014;BME280;46899;47.542;19.082;2022-10-13T08:28:04;101300.72;;;15.11;81.82
61014;BME280;46899;47.542;19.082;2022-10-13T08:31:07;101300.19;;;15.02;80.03
61014;BME280;46899;47.542;19.082;2022-10-13T08:34:09;101297.87;;;15.17;80.78
61014;BME280;46899;47.542;19.082;2022-10-13T08:37:13;101287.22;;;15.21;78.84
61014;BME280;46899;47.542;19.082;2022-10-13T08:40:18;101283.94;;;15.38;79.70
61014;BME280;46899;47.542;19.082;2022-10-13T08:43:22;101278.00;;;15.33;79.61
61014;BME280;46899;47.542;19.082;2022-10-13T08:46:31;101282.81;;;15.45;78.07
61014;BME280;46899;47.542;19.082;2022-10-13T08:49:34;101286.84;;;15.73;77.81
61014;BME280;46899;47.542;19.082;2022-10-13T08:59:21;101278.97;;;16.15;72.63
61014;BME280;46899;47.542;19.082;2022-10-13T09:02:24;101276.31;;;16.35;71.53
61014;BME280;46899;47.542;19.082;2022-10-13T09:05:42;101273.44;;;16.21;70.01
61014;BME280;46899;47.542;19.082;2022-10-13T09:08:48;101270.66;;;16.04;68.92
61014;BME280;46899;47.542;19.082;2022-10-13T09:11:52;101272.31;;;16.27;69.22
61014;BME280;46899;47.542;19.082;2022-10-13T09:15:05;101264.13;;;16.34;68.53
61014;BME280;46899;47.542;19.082;2022-10-13T09:18:11;101268.97;;;16.43;68.53
61014;BME280;46899;47.542;19.082;2022-10-13T09:21:23;101260.28;;;16.62;66.38
61014;BME280;46899;47.542;19.082;2022-10-13T09:24:26;101263.91;;;16.78;65.06
61014;BME280;46899;47.542;19.082;2022-10-13T09:27:28;101257.00;;;16.75;63.96
61014;BME280;46899;47.542;19.082;2022-10-13T09:30:43;101260.50;;;16.76;64.61
61014;BME280;46899;47.542;19.082;2022-10-13T09:33:55;101261.06;;;16.82;63.08
61014;BME280;46899;47.542;19.082;2022-10-13T09:36:59;101263.78;;;16.99;61.76
61014;BME280;46899;47.542;19.082;2022-10-13T09:40:13;101255.75;;;17.02;63.15
61014;BME280;46899;47.542;19.082;2022-10-13T09:46:43;101245.78;;;17.09;63.22
61014;BME280;46899;47.542;19.082;2022-10-13T09:49:57;101246.53;;;17.30;62.89
61014;BME280;46899;47.542;19.082;2022-10-13T09:53:30;101242.63;;;17.20;63.13
61014;BME280;46899;47.542;19.082;2022-10-13T09:56:42;101243.97;;;17.28;63.08
61014;BME280;46899;47.542;19.082;2022-10-13T09:59:48;101235.91;;;17.31;62.70
61014;BME280;46899;47.542;19.082;2022-10-13T10:06:04;101235.88;;;17.33;63.69
61014;BME280;46899;47.542;19.082;2022-10-13T10:12:17;101226.25;;;16.96;64.44
61014;BME280;46899;47.542;19.082;2022-10-13T10:15:23;101227.56;;;17.23;64.89
61014;BME280;46899;47.542;19.082;2022-10-13T10:21:37;101216.22;;;17.40;63.53
61014;BME280;46899;47.542;19.082;2022-10-13T10:24:45;101210.41;;;17.50;63.54
61014;BME280;46899;47.542;19.082;2022-10-13T10:27:54;101212.34;;;17.30;64.00
61014;BME280;46899;47.542;19.082;2022-10-13T10:41:07;101199.13;;;17.48;64.60
61014;BME280;46899;47.542;19.082;2022-10-13T10:44:16;101194.81;;;17.64;65.06
61014;BME280;46899;47.542;19.082;2022-10-13T10:47:23;101191.50;;;17.61;63.19
61014;BME280;46899;47.542;19.082;2022-10-13T10:50:28;101193.72;;;17.86;63.32
61014;BME280;46899;47.542;19.082;2022-10-13T10:56:38;101178.72;;;18.20;61.64
61014;BME280;46899;47.542;19.082;2022-10-13T11:03:09;101171.66;;;18.21;61.18
61014;BME280;46899;47.542;19.082;2022-10-13T11:09:37;101164.25;;;18.12;62.74
61014;BME280;46899;47.542;19.082;2022-10-13T11:15:53;101151.69;;;18.50;61.40
61014;BME280;46899;47.542;19.082;2022-10-13T11:19:03;101156.94;;;18.17;60.71
61014;BME280;46899;47.542;19.082;2022-10-13T11:22:14;101147.69;;;18.25;60.62
61014;BME280;46899;47.542;19.082;2022-10-13T11:25:34;101132.94;;;18.38;61.12
61014;BME280;46899;47.542;19.082;2022-10-13T11:31:49;101131.47;;;18.33;59.32
61014;BME280;46899;47.542;19.082;2022-10-13T11:38:12;101118.44;;;18.47;59.11
61014;BME280;46899;47.542;19.082;2022-10-13T11:41:24;101122.09;;;18.60;59.55
61014;BME280;46899;47.542;19.082;2022-10-13T11:54:21;101101.91;;;18.90;58.14
61014;BME280;46899;47.542;19.082;2022-10-13T11:57:26;101092.16;;;18.77;58.78
61014;BME280;46899;47.542;19.082;2022-10-13T12:00:29;101092.66;;;18.68;57.04
61014;BME280;46899;47.542;19.082;2022-10-13T12:03:33;101086.69;;;18.80;57.47
61014;BME280;46899;47.542;19.082;2022-10-13T12:06:36;101085.06;;;18.77;57.52
61014;BME280;46899;47.542;19.082;2022-10-13T12:09:50;101080.81;;;18.90;58.14
61014;BME280;46899;47.542;19.082;2022-10-13T12:12:54;101076.66;;;18.86;57.44
61014;BME280;46899;47.542;19.082;2022-10-13T12:15:58;101079.16;;;19.03;56.95
61014;BME280;46899;47.542;19.082;2022-10-13T12:19:06;101068.59;;;19.03;58.23
61014;BME280;46899;47.542;19.082;2022-10-13T12:22:10;101074.06;;;19.00;59.10
61014;BME280;46899;47.542;19.082;2022-10-13T12:25:14;101062.56;;;19.01;58.08
61014;BME280;46899;47.542;19.082;2022-10-13T12:28:18;101061.19;;;19.10;57.08
61014;BME280;46899;47.542;19.082;2022-10-13T12:31:26;101062.22;;;19.07;55.78
61014;BME280;46899;47.542;19.082;2022-10-13T12:34:30;101055.09;;;19.24;58.94
61014;BME280;46899;47.542;19.082;2022-10-13T12:37:37;101050.91;;;19.20;57.02
61014;BME280;46899;47.542;19.082;2022-10-13T12:40:40;101049.78;;;19.09;56.80
61014;BME280;46899;47.542;19.082;2022-10-13T12:43:42;101048.28;;;19.20;56.48
61014;BME280;46899;47.542;19.082;2022-10-13T12:46:46;101052.69;;;19.05;56.39
61014;BME280;46899;47.542;19.082;2022-10-13T12:49:49;101040.84;;;19.12;57.43
61014;BME280;46899;47.542;19.082;2022-10-13T12:56:27;101040.63;;;19.15;57.46
61014;BME280;46899;47.542;19.082;2022-10-13T12:59:31;101043.75;;;19.07;57.80
61014;BME280;46899;47.542;19.082;2022-10-13T13:02:33;101034.53;;;19.15;57.45
61014;BME280;46899;47.542;19.082;2022-10-13T13:05:37;101032.41;;;19.05;58.37
61014;BME280;46899;47.542;19.082;2022-10-13T13:08:41;101032.25;;;19.08;56.54
61014;BME280;46899;47.542;19.082;2022-10-13T13:11:45;101027.13;;;19.05;56.68
61014;BME280;46899;47.542;19.082;2022-10-13T13:14:48;101026.63;;;19.15;56.28
61014;BME280;46899;47.542;19.082;2022-10-13T13:17:52;101019.47;;;19.17;58.17
61014;BME280;46899;47.542;19.082;2022-10-13T13:21:00;101021.34;;;19.15;58.89
61014;BME280;46899;47.542;19.082;2022-10-13T13:24:03;101018.78;;;19.13;58.43
61014;BME280;46899;47.542;19.082;2022-10-13T13:27:26;101013.81;;;19.23;56.48
61014;BME280;46899;47.542;19.082;2022-10-13T13:30:33;101011.34;;;19.34;56.35
61014;BME280;46899;47.542;19.082;2022-10-13T13:33:35;101013.50;;;19.43;56.38
61014;BME280;46899;47.542;19.082;2022-10-13T13:36:38;101012.63;;;19.42;55.80
61014;BME280;46899;47.542;19.082;2022-10-13T13:39:41;101006.22;;;19.46;57.31
61014;BME280;46899;47.542;19.082;2022-10-13T13:42:44;100992.13;;;19.32;59.13
61014;BME280;46899;47.542;19.082;2022-10-13T13:45:46;101001.56;;;19.22;56.84
61014;BME280;46899;47.542;19.082;2022-10-13T13:48:49;101005.50;;;19.00;57.16
61014;BME280;46899;47.542;19.082;2022-10-13T13:51:51;100998.66;;;18.96;56.87
61014;BME280;46899;47.542;19.082;2022-10-13T13:54:54;100998.50;;;18.99;58.38
61014;BME280;46899;47.542;19.082;2022-10-13T13:57:57;100994.16;;;18.98;58.13
61014;BME280;46899;47.542;19.082;2022-10-13T14:01:02;100998.63;;;18.82;58.35
61014;BME280;46899;47.542;19.082;2022-10-13T14:04:05;100994.59;;;18.77;59.03
61014;BME280;46899;47.542;19.082;2022-10-13T14:07:07;101003.88;;;18.68;60.81
61014;BME280;46899;47.542;19.082;2022-10-13T14:10:10;100991.06;;;18.62;60.92
61014;BME280;46899;47.542;19.082;2022-10-13T14:13:12;100992.47;;;18.68;61.10
61014;BME280;46899;47.542;19.082;2022-10-13T14:16:15;100995.09;;;18.68;60.26
61014;BME280;46899;47.542;19.082;2022-10-13T14:19:18;100993.09;;;18.57;59.56
61014;BME280;46899;47.542;19.082;2022-10-13T14:22:21;100995.16;;;18.52;60.71
61014;BME280;46899;47.542;19.082;2022-10-13T14:25:24;100996.34;;;18.31;60.18
61014;BME280;46899;47.542;19.082;2022-10-13T14:28:27;100994.06;;;18.25;61.80
61014;BME280;46899;47.542;19.082;2022-10-13T14:31:31;100982.34;;;18.15;61.80
61014;BME280;46899;47.542;19.082;2022-10-13T14:34:34;100986.75;;;18.14;62.44
61014;BME280;46899;47.542;19.082;2022-10-13T14:37:36;100985.66;;;18.03;65.09
61014;BME280;46899;47.542;19.082;2022-10-13T14:40:40;100990.38;;;17.81;65.85
61014;BME280;46899;47.542;19.082;2022-10-13T14:43:43;100985.00;;;17.66;66.34
61014;BME280;46899;47.542;19.082;2022-10-13T14:46:45;100981.72;;;17.63;66.65
61014;BME280;46899;47.542;19.082;2022-10-13T14:49:48;100976.69;;;17.58;65.36
61014;BME280;46899;47.542;19.082;2022-10-13T14:52:50;100981.34;;;17.53;69.10
61014;BME280;46899;47.542;19.082;2022-10-13T14:55:53;100975.84;;;17.41;69.33
61014;BME280;46899;47.542;19.082;2022-10-13T14:58:56;100981.94;;;17.26;70.42
61014;BME280;46899;47.542;19.082;2022-10-13T15:02:02;100980.63;;;17.17;72.05
61014;BME280;46899;47.542;19.082;2022-10-13T15:05:04;100974.94;;;16.92;73.51
61014;BME280;46899;47.542;19.082;2022-10-13T15:08:07;100974.50;;;16.84;73.64
61014;BME280;46899;47.542;19.082;2022-10-13T15:11:10;100971.63;;;16.71;73.53
61014;BME280;46899;47.542;19.082;2022-10-13T15:14:12;100973.94;;;16.60;73.74
61014;BME280;46899;47.542;19.082;2022-10-13T15:17:15;100972.75;;;16.49;74.27
61014;BME280;46899;47.542;19.082;2022-10-13T15:20:17;100970.62;;;16.38;74.72
61014;BME280;46899;47.542;19.082;2022-10-13T15:23:20;100968.50;;;16.27;75.77
61014;BME280;46899;47.542;19.082;2022-10-13T15:26:22;100971.75;;;16.15;77.10
61014;BME280;46899;47.542;19.082;2022-10-13T15:29:25;100959.88;;;16.07;77.36
61014;BME280;46899;47.542;19.082;2022-10-13T15:32:27;100966.56;;;15.95;78.19
61014;BME280;46899;47.542;19.082;2022-10-13T15:35:32;100967.22;;;15.82;78.31
61014;BME280;46899;47.542;19.082;2022-10-13T15:38:34;100957.94;;;15.74;79.29
61014;BME280;46899;47.542;19.082;2022-10-13T15:41:37;100960.44;;;15.59;80.34
61014;BME280;46899;47.542;19.082;2022-10-13T15:44:39;100963.59;;;15.47;81.32
61014;BME280;46899;47.542;19.082;2022-10-13T15:48:02;100962.41;;;15.34;82.61
61014;BME280;46899;47.542;19.082;2022-10-13T15:51:07;100957.06;;;15.17;84.12
61014;BME280;46899;47.542;19.082;2022-10-13T15:54:10;100961.22;;;15.02;85.12
61014;BME280;46899;47.542;19.082;2022-10-13T15:57:12;100960.09;;;14.87;87.84
61014;BME280;46899;47.542;19.082;2022-10-13T16:00:15;100957.28;;;14.72;89.57
61014;BME280;46899;47.542;19.082;2022-10-13T16:03:18;100956.94;;;14.59;89.38
61014;BME280;46899;47.542;19.082;2022-10-13T16:06:20;100961.72;;;14.50;91.25
61014;BME280;46899;47.542;19.082;2022-10-13T16:09:23;100966.59;;;14.37;92.13
61014;BME280;46899;47.542;19.082;2022-10-13T16:12:27;100957.38;;;14.27;92.54
61014;BME280;46899;47.542;19.082;2022-10-13T16:15:29;100951.59;;;14.19;93.39
61014;BME280;46899;47.542;19.082;2022-10-13T16:18:33;100957.31;;;14.07;94.61
61014;BME280;46899;47.542;19.082;2022-10-13T16:21:36;100961.19;;;13.97;94.74
61014;BME280;46899;47.542;19.082;2022-10-13T16:24:38;100954.50;;;13.90;95.11
61014;BME280;46899;47.542;19.082;2022-10-13T16:27:41;100954.75;;;13.84;95.88
61014;BME280;46899;47.542;19.082;2022-10-13T16:30:45;100956.00;;;13.73;96.92
61014;BME280;46899;47.542;19.082;2022-10-13T16:33:48;100957.16;;;13.66;98.01
61014;BME280;46899;47.542;19.082;2022-10-13T16:36:50;100960.03;;;13.59;98.96
61014;BME280;46899;47.542;19.082;2022-10-13T16:39:53;100964.44;;;13.58;100.00
61014;BME280;46899;47.542;19.082;2022-10-13T16:42:55;100964.56;;;13.55;100.00
61014;BME280;46899;47.542;19.082;2022-10-13T16:45:58;100960.38;;;13.50;100.00
61014;BME280;46899;47.542;19.082;2022-10-13T16:49:01;100966.91;;;13.38;100.00
61014;BME280;46899;47.542;19.082;2022-10-13T16:52:04;100968.84;;;13.33;100.00
61014;BME280;46899;47.542;19.082;2022-10-13T16:55:06;100960.44;;;13.25;100.00
61014;BME280;46899;47.542;19.082;2022-10-13T16:58:09;100977.16;;;13.21;100.00
61014;BME280;46899;47.542;19.082;2022-10-13T17:01:12;100960.25;;;13.05;100.00
61014;BME280;46899;47.542;19.082;2022-10-13T17:04:14;100967.72;;;12.91;100.00
61014;BME280;46899;47.542;19.082;2022-10-13T17:07:23;100965.34;;;12.85;100.00
61014;BME280;46899;47.542;19.082;2022-10-13T17:10:25;100969.16;;;12.75;100.00
61014;BME280;46899;47.542;19.082;2022-10-13T17:13:28;100975.50;;;12.68;100.00